Terminal Aerodrome Forecast
Issued by NWS

Home | Current Version | Previous Version | Graphics & Text | Print | Product List | Glossary Off
Versions: 1 2 3 4 5 6 7 8 9 10 11 12 13 14 15 16 17 18 19 20 21 22 23 24 25 26 27 28 29 30 31 32 33 34 35 36 37 38 39

000
FTUS43 KDDC 291700
TAFGCK
TAF
KGCK 291737Z 2918/3018 20014G18KT P6SM SCT040
     FM300100 17007KT P6SM SCT040 BKN080
      TEMPO 3002/3006 5SM -TSRA BKN035CB
     FM300600 09014KT P6SM -RA OVC020
      TEMPO 3007/3011 3SM +TSRA OVC010CB=

USA.gov is the U.S. government's official web portal to all federal, state and local government web resources and services.